San Francisco International Airport
KSFO : now visible

Airfield :











YOU CAN JOIN US ON...

 
LOGIN :

Register | Disclaimer

   EN    FR    IT 

 









Legend :    VFR   Marginal VFR   IFR   Intensive IFR   Very Intensive IFR
Visi :
Ceiling :
>= 8 km
>= 3000ft
5 to 8 km
1000 to 3000 ft
1500m to 5 km
500 to 1000 ft
800 to 1500m
200 to 500 ft
< 800m
< 200 ft
Symbols :   Thunderstorms  Fog  Heavy snow  Heavy precipitations  Wind > 20 kt






- Airport Elevation : 13 ft
- IATA code : SFO


KSFO - San Francisco International

CURRENT METAR :
  • 081856Z 03008KT 10SM FEW009 21/15 A2997 RMK AO2 SLP148 T02060150

EXPIRED METARs :
  • 081756Z 04006KT 10SM FEW009 19/14 A2997 RMK AO2 SLP148 T01940144 10194 20144 58000
  • 081656Z 05005KT 10SM FEW008 SCT014 19/14 A2997 RMK AO2 SLP149 T01890139

TAF KSFO
Valid from the 08 at 18:00 until the 10 at 00:00 UTC


081720Z 0818/0924 04006KT P6SM FEW008 FEW014
FM082230 31014KT P6SM FEW009
FM090400 30009KT P6SM FEW009
FM091100 29006KT P6SM SCT007
FM091600 04005KT P6SM FEW009
FM092230 31014KT P6SM SKC
KZOA FIR / North America



MET'MAP, your aeronautical weather chart ! - Copyright ORBIFLY December 2007 - Disclaimer

ORBIFLY MET'MAP TEAM :

Programming & Development : Alexandra Zaïnal
Concept & original design : Baudouin d'Aumeries
Assistance for programming : Marc-Olivier Méhu
Technical & hardware support : Manuel Goepfert

Contact : metmap@orbifly.com




SOURCES & CREDITS :

   NOAA       Earth
Advisory